Time;durP1;ratioP1;P1;durP2;ratioP2;P2;SDS_P1;SDS_P2;PMS_P1;PMS_P2;Temp;Humidity;BMP_temperature;BMP_pressure;BME280_temperature;BME280_humidity;BME280_pressure;Samples;Min_cycle;Max_cycle;Signal;HPM_P1;HPM_P2
2023/04/22 00:01:05;;;;;;;14.07;7.27;;;;;;;8.82;100.00;95868.50;7397325;19;20369;-76
2023/04/22 00:03:32;;;;;;;8.93;6.83;;;;;;;8.99;100.00;95888.63;7399084;19;20348;-76
2023/04/22 00:05:59;;;;;;;9.77;7.50;;;;;;;8.65;100.00;95876.53;7395450;19;20407;-76
2023/04/22 00:08:27;;;;;;;8.23;6.63;;;;;;;8.12;100.00;95856.19;7399245;19;20396;-76
2023/04/22 00:10:55;;;;;;;7.43;5.20;;;;;;;8.02;100.00;95873.16;7397337;19;20365;-76
2023/04/22 00:13:22;;;;;;;9.37;6.93;;;;;;;7.89;100.00;95855.75;7399393;19;20849;-76
2023/04/22 00:15:49;;;;;;;10.20;6.43;;;;;;;8.09;100.00;95868.16;7398193;19;20404;-76
2023/04/22 00:18:17;;;;;;;7.57;6.33;;;;;;;8.30;100.00;95841.81;7399196;19;20405;-76
2023/04/22 00:20:44;;;;;;;6.53;5.27;;;;;;;8.63;100.00;95875.34;7398344;19;20400;-76
2023/04/22 00:23:11;;;;;;;11.00;6.77;;;;;;;8.56;100.00;95892.44;7400792;19;20407;-76
2023/04/22 00:25:39;;;;;;;6.10;5.50;;;;;;;8.07;100.00;95880.88;7396756;19;20449;-76
2023/04/22 00:28:06;;;;;;;6.77;5.90;;;;;;;7.88;100.00;95891.03;7401019;19;20358;-76
2023/04/22 00:30:34;;;;;;;6.40;5.57;;;;;;;7.65;100.00;95883.44;7399173;19;20400;-76
2023/04/22 00:33:01;;;;;;;11.10;5.70;;;;;;;7.43;100.00;95867.16;7398993;19;20920;-76
2023/04/22 00:35:28;;;;;;;6.43;5.80;;;;;;;7.37;100.00;95877.84;7395834;19;20457;-75
2023/04/22 00:37:55;;;;;;;8.07;5.50;;;;;;;6.94;100.00;95809.66;7396210;19;20409;-76
2023/04/22 00:40:22;;;;;;;7.77;6.07;;;;;;;7.38;100.00;95878.63;7397134;19;20945;-75
2023/04/22 00:42:50;;;;;;;6.73;5.93;;;;;;;7.31;100.00;95857.31;7395913;19;20376;-75
2023/04/22 00:45:18;;;;;;;7.00;5.90;;;;;;;7.45;100.00;95886.78;7393895;19;20445;-75
2023/04/22 00:47:46;;;;;;;6.87;5.63;;;;;;;7.54;100.00;95900.69;7396213;19;20394;-75
2023/04/22 00:50:14;;;;;;;6.10;5.60;;;;;;;7.22;100.00;95891.53;7399033;19;20349;-75
2023/04/22 00:52:41;;;;;;;10.70;4.43;;;;;;;6.69;100.00;95828.94;7395359;19;20405;-75
2023/04/22 00:55:08;;;;;;;5.93;5.43;;;;;;;6.86;100.00;95868.28;7395335;19;20946;-76
2023/04/22 00:57:36;;;;;;;9.47;6.43;;;;;;;7.05;100.00;95899.44;7395315;19;20598;-75
2023/04/22 01:00:04;;;;;;;6.97;5.87;;;;;;;6.96;100.00;95896.09;7397466;19;20399;-75
2023/04/22 01:02:31;;;;;;;6.00;5.20;;;;;;;6.77;100.00;95878.81;7395096;19;20408;-75
2023/04/22 01:04:59;;;;;;;6.50;5.40;;;;;;;6.60;100.00;95878.84;7395308;19;20427;-75
2023/04/22 01:07:27;;;;;;;6.67;5.50;;;;;;;6.54;100.00;95898.44;7395204;19;20452;-76
2023/04/22 01:09:54;;;;;;;6.33;5.10;;;;;;;6.47;100.00;95888.44;7398496;19;20386;-76
2023/04/22 01:12:21;;;;;;;9.40;5.43;;;;;;;6.63;100.00;95893.97;7394997;19;20760;-75
2023/04/22 01:14:48;;;;;;;8.93;6.40;;;;;;;6.76;100.00;95894.88;7396037;19;20449;-76
2023/04/22 01:17:16;;;;;;;8.00;5.20;;;;;;;6.65;100.00;95893.66;7396508;19;20389;-76
2023/04/22 01:19:43;;;;;;;6.10;5.50;;;;;;;6.59;100.00;95898.31;7396694;19;20389;-75
2023/04/22 01:22:12;;;;;;;6.00;5.50;;;;;;;6.35;100.00;95882.25;7394350;19;20753;-75
2023/04/22 01:24:39;;;;;;;6.10;5.50;;;;;;;6.43;100.00;95890.13;7395849;19;20527;-75
2023/04/22 01:27:07;;;;;;;6.47;5.33;;;;;;;6.46;100.00;95886.13;7395468;19;20369;-76
2023/04/22 01:29:36;;;;;;;7.43;6.00;;;;;;;6.57;100.00;95900.47;7396411;19;20499;-75
2023/04/22 01:32:04;;;;;;;8.33;5.90;;;;;;;6.61;100.00;95898.00;7397228;19;20357;-76
2023/04/22 01:34:32;;;;;;;6.13;5.60;;;;;;;6.71;100.00;95901.09;7395817;19;20424;-76
2023/04/22 01:36:59;;;;;;;5.63;5.13;;;;;;;6.70;100.00;95896.16;7395276;19;20380;-76
2023/04/22 01:39:26;;;;;;;5.50;4.80;;;;;;;6.69;100.00;95890.13;7396313;19;20361;-76
2023/04/22 01:41:55;;;;;;;8.00;5.37;;;;;;;6.49;100.00;95883.63;7395136;19;20425;-76
2023/04/22 01:44:23;;;;;;;7.63;5.50;;;;;;;6.48;100.00;95881.31;7396028;19;21040;-76
2023/04/22 01:46:50;;;;;;;9.10;5.97;;;;;;;6.62;100.00;95913.44;7394292;19;20365;-76
2023/04/22 01:49:16;;;;;;;10.10;5.50;;;;;;;6.37;100.00;95885.34;7395961;19;20731;-76
2023/04/22 01:51:43;;;;;;;5.20;4.70;;;;;;;6.39;100.00;95880.56;7395200;19;20376;-76
2023/04/22 01:54:11;;;;;;;5.67;5.17;;;;;;;6.19;100.00;95866.19;7395597;19;20412;-75
2023/04/22 01:56:39;;;;;;;10.97;6.00;;;;;;;6.61;100.00;95914.53;7394474;19;20368;-76
2023/04/22 01:59:06;;;;;;;10.03;6.00;;;;;;;6.41;100.00;95884.44;7393175;19;21177;-76
2023/04/22 02:01:35;;;;;;;6.87;6.17;;;;;;;6.52;100.00;95896.13;7395006;19;20376;-75
2023/04/22 02:04:05;;;;;;;6.23;5.53;;;;;;;6.37;100.00;95885.34;7392804;19;20395;-76
2023/04/22 02:06:32;;;;;;;5.53;5.03;;;;;;;6.39;100.00;95906.81;7393880;19;20794;-76
2023/04/22 02:08:59;;;;;;;7.07;6.27;;;;;;;5.84;100.00;95849.63;7394121;19;20472;-76
2023/04/22 02:11:26;;;;;;;10.87;6.03;;;;;;;5.96;100.00;95881.31;7396424;19;20373;-76
2023/04/22 02:13:53;;;;;;;5.93;5.23;;;;;;;5.63;100.00;95854.69;7393517;19;20476;-76
2023/04/22 02:16:20;;;;;;;7.37;5.60;;;;;;;5.85;100.00;95877.41;7394642;19;20928;-76
2023/04/22 02:18:47;;;;;;;8.23;6.63;;;;;;;5.82;100.00;95854.41;7393123;19;20404;-76
2023/04/22 02:21:14;;;;;;;6.07;5.43;;;;;;;6.00;100.00;95889.31;7395472;19;20385;-76
2023/04/22 02:23:41;;;;;;;7.93;5.30;;;;;;;5.73;100.00;95870.13;7392913;19;20925;-76
2023/04/22 02:26:09;;;;;;;8.67;5.43;;;;;;;5.70;100.00;95894.34;7394278;19;20384;-76
2023/04/22 02:28:35;;;;;;;6.10;5.27;;;;;;;5.44;100.00;95867.28;7393401;19;20729;-76
2023/04/22 02:31:02;;;;;;;7.80;6.87;;;;;;;5.12;100.00;95816.78;7394909;19;20380;-76
2023/04/22 02:33:29;;;;;;;6.90;5.80;;;;;;;5.43;100.00;95863.13;7392909;19;20451;-76
2023/04/22 02:35:56;;;;;;;6.37;5.67;;;;;;;5.55;100.00;95845.72;7392564;19;20421;-76
2023/04/22 02:38:23;;;;;;;9.10;5.90;;;;;;;5.67;100.00;95862.72;7392913;19;20408;-76
2023/04/22 02:40:50;;;;;;;8.17;6.50;;;;;;;5.79;100.00;95861.03;7395997;19;20708;-76
2023/04/22 02:43:17;;;;;;;8.47;6.90;;;;;;;5.97;100.00;95876.84;7392665;19;20368;-76
2023/04/22 02:45:44;;;;;;;10.07;5.30;;;;;;;6.07;100.00;95893.06;7392381;19;20796;-76
2023/04/22 02:48:11;;;;;;;8.40;5.23;;;;;;;5.99;100.00;95866.78;7391004;19;20380;-76
2023/04/22 02:50:38;;;;;;;6.93;6.00;;;;;;;5.93;100.00;95868.81;7394514;19;20377;-76
2023/04/22 02:53:07;;;;;;;5.97;5.40;;;;;;;5.50;100.00;95817.03;7392550;19;20427;-76
2023/04/22 02:55:34;;;;;;;6.47;5.87;;;;;;;5.76;100.00;95863.53;7392497;19;20539;-76
2023/04/22 02:58:01;;;;;;;6.73;5.97;;;;;;;5.56;100.00;95823.66;7392969;19;20380;-76
2023/04/22 03:00:28;;;;;;;5.77;5.27;;;;;;;5.68;100.00;95836.19;7395013;19;20514;-76
2023/04/22 03:02:55;;;;;;;7.87;5.80;;;;;;;5.90;100.00;95877.31;7393119;19;20393;-76
2023/04/22 03:05:29;;;;;;;8.07;6.47;;;;;;;5.69;100.00;95876.28;7393113;19;20430;-76
2023/04/22 03:07:56;;;;;;;6.60;6.00;;;;;;;5.62;100.00;95853.94;7391460;19;20416;-76
2023/04/22 03:10:23;;;;;;;6.40;5.87;;;;;;;5.91;100.00;95884.88;7397487;19;20375;-76
2023/04/22 03:12:50;;;;;;;12.50;6.00;;;;;;;5.58;100.00;95849.59;7400402;19;20368;-76
2023/04/22 03:15:18;;;;;;;10.40;6.83;;;;;;;5.24;100.00;95829.31;7398203;19;20435;-76
2023/04/22 03:17:47;;;;;;;6.47;5.87;;;;;;;5.22;100.00;95847.19;7400489;19;20409;-76
2023/04/22 03:20:15;;;;;;;7.70;6.60;;;;;;;5.04;100.00;95843.72;7398410;19;20389;-76
2023/04/22 03:22:42;;;;;;;9.40;6.57;;;;;;;5.07;100.00;95850.19;7400204;19;20397;-76
2023/04/22 03:25:11;;;;;;;7.77;6.23;;;;;;;5.20;100.00;95878.91;7397011;19;20765;-76
2023/04/22 03:27:39;;;;;;;6.87;6.10;;;;;;;5.19;100.00;95880.00;7398431;19;20376;-76
2023/04/22 03:30:07;;;;;;;7.20;6.50;;;;;;;5.18;100.00;95886.31;7398762;19;20384;-75
2023/04/22 03:32:34;;;;;;;7.67;6.90;;;;;;;5.16;100.00;95885.84;7399871;19;20905;-76
2023/04/22 03:35:16;;;;;;;6.93;6.10;;;;;;;5.11;100.00;95875.50;7397549;19;20448;-76
2023/04/22 03:37:46;;;;;;;7.93;5.60;;;;;;;5.07;100.00;95890.25;7400332;19;20414;-75
2023/04/22 03:40:17;;;;;;;6.30;5.80;;;;;;;4.95;100.00;95858.63;7399305;19;20376;-75
2023/04/22 03:42:44;;;;;;;8.57;5.97;;;;;;;5.04;100.00;95862.81;7400255;19;20940;-76
2023/04/22 03:45:11;;;;;;;6.50;5.90;;;;;;;5.01;100.00;95871.28;7397202;19;20420;-75
2023/04/22 03:47:43;;;;;;;8.40;6.47;;;;;;;4.99;100.00;95859.56;7398838;19;20376;-75
2023/04/22 03:50:19;;;;;;;7.47;6.00;;;;;;;4.77;100.00;95834.19;7399173;19;20896;-75
2023/04/22 03:52:48;;;;;;;7.30;6.03;;;;;;;4.88;100.00;95853.81;7397901;19;20372;-75
2023/04/22 03:55:18;;;;;;;8.73;6.33;;;;;;;4.96;100.00;95866.19;7394358;19;20742;-76
2023/04/22 03:57:47;;;;;;;9.33;6.00;;;;;;;4.84;100.00;95870.44;7397706;19;20372;-76
2023/04/22 04:00:14;;;;;;;8.00;7.20;;;;;;;4.93;100.00;95861.53;7399143;19;20544;-75
2023/04/22 04:02:47;;;;;;;7.30;6.60;;;;;;;5.10;100.00;95884.44;7397870;19;20897;-75
2023/04/22 04:05:17;;;;;;;7.37;6.40;;;;;;;5.11;100.00;95896.47;7397762;19;20432;-75
2023/04/22 04:07:44;;;;;;;6.97;5.77;;;;;;;4.57;100.00;95869.50;7396234;19;20955;-76
2023/04/22 04:10:12;;;;;;;6.23;5.63;;;;;;;4.63;100.00;95885.84;7399952;19;20380;-76
2023/04/22 04:12:39;;;;;;;6.23;5.40;;;;;;;4.02;100.00;95854.03;7398036;19;20949;-75
2023/04/22 04:15:06;;;;;;;8.00;6.70;;;;;;;4.06;100.00;95860.22;7398183;19;20423;-76
2023/04/22 04:17:35;;;;;;;8.87;7.20;;;;;;;4.32;100.00;95875.34;7397874;19;20422;-76
2023/04/22 04:20:03;;;;;;;7.03;6.20;;;;;;;4.65;100.00;95884.47;7397985;19;20388;-75
2023/04/22 04:22:30;;;;;;;10.20;7.10;;;;;;;4.76;100.00;95879.78;7398623;19;20389;-76
2023/04/22 04:25:00;;;;;;;9.97;6.60;;;;;;;4.78;100.00;95879.47;7395250;19;20433;-76
2023/04/22 04:27:33;;;;;;;9.80;6.47;;;;;;;4.93;100.00;95887.72;7396259;19;20943;-76
2023/04/22 04:30:03;;;;;;;10.13;6.67;;;;;;;4.88;100.00;95889.72;7397955;19;20375;-76
2023/04/22 04:32:38;;;;;;;13.13;11.37;;;;;;;5.03;100.00;95889.31;7398444;19;20372;-76
2023/04/22 04:35:08;;;;;;;18.10;13.10;;;;;;;4.89;100.00;95868.44;7395420;19;20435;-75
2023/04/22 04:37:39;;;;;;;15.30;11.90;;;;;;;4.99;100.00;95870.06;7398360;19;20718;-76
2023/04/22 04:40:10;;;;;;;16.57;14.63;;;;;;;4.79;100.00;95878.41;7397268;19;20377;-76
2023/04/22 04:42:46;;;;;;;10.80;9.60;;;;;;;4.62;100.00;95866.75;7398789;19;20376;-76
2023/04/22 04:45:19;;;;;;;7.17;6.30;;;;;;;4.56;100.00;95877.66;7396164;19;20433;-76
2023/04/22 04:47:49;;;;;;;9.10;6.60;;;;;;;4.45;100.00;95875.28;7394438;19;20866;-76
2023/04/22 04:50:21;;;;;;;6.23;5.63;;;;;;;4.68;100.00;95881.28;7397723;19;20368;-76
2023/04/22 04:52:49;;;;;;;7.50;6.80;;;;;;;4.59;100.00;95843.03;7395669;19;20405;-76
2023/04/22 04:55:23;;;;;;;7.40;5.83;;;;;;;4.86;100.00;95886.63;7396182;19;20432;-76
2023/04/22 04:57:50;;;;;;;7.43;6.70;;;;;;;4.72;100.00;95860.50;7395818;19;20379;-76
2023/04/22 05:00:18;;;;;;;11.03;7.17;;;;;;;4.59;100.00;95850.88;7397380;19;20372;-75
2023/04/22 05:02:45;;;;;;;7.90;7.20;;;;;;;4.84;100.00;95863.34;7396044;19;20432;-76
2023/04/22 05:05:12;;;;;;;11.53;6.47;;;;;;;4.94;100.00;95889.28;7395932;19;20424;-76
2023/04/22 05:07:41;;;;;;;8.40;6.83;;;;;;;4.94;100.00;95868.34;7394998;19;20477;-76
2023/04/22 05:10:10;;;;;;;12.73;7.17;;;;;;;5.26;100.00;95906.53;7397391;19;20397;-76
2023/04/22 05:12:37;;;;;;;8.77;6.37;;;;;;;5.17;100.00;95871.66;7396181;19;20381;-76
2023/04/22 05:15:07;;;;;;;9.33;6.87;;;;;;;5.43;100.00;95894.56;7396368;19;20420;-76
2023/04/22 05:17:35;;;;;;;9.80;8.90;;;;;;;4.99;100.00;95839.38;7395711;19;20369;-75
2023/04/22 05:20:03;;;;;;;9.70;8.70;;;;;;;5.19;100.00;95868.72;7397142;19;20909;-76
2023/04/22 05:22:30;;;;;;;16.80;7.83;;;;;;;5.62;100.00;95923.97;7396170;19;20474;-76
2023/04/22 05:24:57;;;;;;;9.30;6.60;;;;;;;5.34;100.00;95891.91;7396102;19;20948;-75
2023/04/22 05:27:24;;;;;;;7.33;6.63;;;;;;;5.49;100.00;95894.16;7394901;19;20941;-76
2023/04/22 05:29:51;;;;;;;8.03;6.83;;;;;;;5.36;100.00;95866.19;7397378;19;20388;-76
2023/04/22 05:32:22;;;;;;;11.63;6.43;;;;;;;5.71;100.00;95897.75;7394626;19;20380;-76
2023/04/22 05:34:50;;;;;;;8.30;7.07;;;;;;;5.71;100.00;95906.38;7393300;19;20436;-76
2023/04/22 05:37:17;;;;;;;9.93;7.90;;;;;;;5.91;100.00;95905.84;7396282;19;20376;-76
2023/04/22 05:39:44;;;;;;;10.63;8.03;;;;;;;5.96;100.00;95883.16;7394184;19;20376;-76
2023/04/22 05:42:11;;;;;;;11.03;9.10;;;;;;;5.79;100.00;95837.44;7397000;19;20344;-76
2023/04/22 05:44:38;;;;;;;10.27;8.43;;;;;;;6.16;100.00;95867.59;7393004;19;20433;-76
2023/04/22 05:47:05;;;;;;;8.73;7.93;;;;;;;6.44;100.00;95881.19;7395055;19;20395;-76
2023/04/22 05:49:32;;;;;;;8.30;7.47;;;;;;;6.72;100.00;95907.88;7394076;19;20395;-76
2023/04/22 05:52:26;;;;;;;8.67;7.87;;;;;;;6.61;100.00;95879.63;7396002;19;20912;-76
2023/04/22 05:55:14;;;;;;;7.57;6.80;;;;;;;6.77;100.00;95899.06;7394048;19;20420;-76
2023/04/22 05:57:42;;;;;;;8.10;7.30;;;;;;;6.81;100.00;95887.63;7393859;19;20369;-76
2023/04/22 06:00:33;;;;;;;10.10;8.63;;;;;;;7.21;100.00;95912.84;7395700;19;20380;-76
2023/04/22 06:03:13;;;;;;;9.00;8.10;;;;;;;7.34;100.00;95899.50;7405267;19;20392;-75
2023/04/22 06:05:41;;;;;;;8.50;6.87;;;;;;;7.36;100.00;95888.69;7411907;19;20417;-75
2023/04/22 06:08:09;;;;;;;7.87;7.07;;;;;;;7.94;100.00;95908.97;7399078;19;20389;-76
2023/04/22 06:10:36;;;;;;;8.40;7.63;;;;;;;8.25;100.00;95911.25;7393336;19;20771;-76
2023/04/22 06:13:03;;;;;;;11.67;8.10;;;;;;;8.56;100.00;95918.81;7395009;19;20372;-75
2023/04/22 06:15:29;;;;;;;8.07;7.27;;;;;;;8.76;100.00;95913.81;7392778;19;20956;-75
2023/04/22 06:17:57;;;;;;;8.97;8.07;;;;;;;9.13;100.00;95931.28;7394535;19;20873;-76
2023/04/22 06:20:25;;;;;;;8.53;7.63;;;;;;;9.24;100.00;95928.25;7393231;19;20425;-76
2023/04/22 06:22:53;;;;;;;9.90;7.63;;;;;;;9.28;100.00;95914.06;7394801;19;20397;-76
2023/04/22 06:25:19;;;;;;;8.03;7.27;;;;;;;9.48;100.00;95926.41;7392019;19;20436;-75
2023/04/22 06:27:47;;;;;;;12.67;11.17;;;;;;;9.79;100.00;95922.47;7393837;19;20424;-76
2023/04/22 06:30:14;;;;;;;10.30;8.27;;;;;;;10.02;100.00;95933.34;7393461;19;20376;-76
2023/04/22 06:32:41;;;;;;;11.63;8.97;;;;;;;10.44;100.00;95911.94;7394646;19;20776;-76
2023/04/22 06:35:08;;;;;;;10.37;8.47;;;;;;;10.53;100.00;95925.78;7391926;19;20426;-76
2023/04/22 06:37:35;;;;;;;9.50;7.60;;;;;;;10.95;100.00;95937.53;7394799;19;20416;-76
2023/04/22 06:40:06;;;;;;;9.37;6.83;;;;;;;11.02;100.00;95926.38;7392800;19;20404;-76
2023/04/22 06:42:55;;;;;;;8.67;6.60;;;;;;;10.99;100.00;95944.78;7392074;19;20381;-76
2023/04/22 06:45:42;;;;;;;10.60;5.70;;;;;;;11.42;100.00;95946.66;7397644;19;20763;-76
2023/04/22 06:48:23;;;;;;;8.23;6.20;;;;;;;11.71;100.00;95945.47;7400661;19;20373;-76
2023/04/22 06:51:09;;;;;;;9.70;5.60;;;;;;;11.59;100.00;95900.53;7404863;19;20481;-74
2023/04/22 06:53:36;;;;;;;6.33;5.47;;;;;;;11.75;100.00;95949.75;7401026;19;20387;-75
2023/04/22 06:56:04;;;;;;;6.80;6.10;;;;;;;11.78;100.00;95949.06;7396752;19;20456;-74
2023/04/22 06:58:31;;;;;;;5.60;5.10;;;;;;;11.50;100.00;95927.97;7400640;19;20417;-74
2023/04/22 07:00:58;;;;;;;6.40;5.80;;;;;;;11.80;100.00;95968.06;7399794;19;20396;-74
2023/04/22 07:03:26;;;;;;;7.10;4.80;;;;;;;11.87;100.00;95948.13;7401395;19;20368;-74
2023/04/22 07:06:00;;;;;;;7.07;5.53;;;;;;;11.92;100.00;95953.97;7396884;19;20444;-74
2023/04/22 07:08:29;;;;;;;5.70;5.00;;;;;;;11.94;100.00;95950.97;7398783;19;20412;-74
2023/04/22 07:10:56;;;;;;;9.33;5.83;;;;;;;12.09;100.00;95950.94;7399032;19;20393;-74
2023/04/22 07:13:39;;;;;;;9.10;5.97;;;;;;;12.04;100.00;95934.53;7398104;19;20415;-75
2023/04/22 07:16:06;;;;;;;7.63;5.83;;;;;;;12.39;100.00;95958.38;7402037;19;20352;-74
2023/04/22 07:18:34;;;;;;;6.33;5.73;;;;;;;12.32;100.00;95958.25;7398170;19;20468;-74
2023/04/22 07:21:01;;;;;;;8.97;5.60;;;;;;;12.39;100.00;95932.63;7400317;19;20353;-74
2023/04/22 07:23:28;;;;;;;5.73;5.17;;;;;;;12.80;100.00;95924.34;7398359;19;20408;-76
2023/04/22 07:25:55;;;;;;;5.67;4.87;;;;;;;13.12;100.00;95931.03;7396872;19;20424;-76
2023/04/22 07:28:22;;;;;;;8.70;5.50;;;;;;;12.96;100.00;95936.44;7396021;19;20419;-76
2023/04/22 07:30:49;;;;;;;6.40;5.80;;;;;;;13.30;100.00;95924.19;7399566;19;20405;-76
2023/04/22 07:33:15;;;;;;;6.40;5.10;;;;;;;13.56;100.00;95923.47;7398045;19;20705;-76
2023/04/22 07:35:42;;;;;;;8.40;5.90;;;;;;;13.88;100.00;95945.22;7397689;19;20424;-77
2023/04/22 07:38:09;;;;;;;5.43;4.40;;;;;;;13.94;100.00;95932.44;7398478;19;20383;-77
2023/04/22 07:40:39;;;;;;;9.13;5.17;;;;;;;13.89;100.00;95904.28;7399186;19;20380;-77
2023/04/22 07:43:06;;;;;;;6.63;5.00;;;;;;;14.09;100.00;95918.22;7399752;19;20375;-77
2023/04/22 07:45:33;;;;;;;16.30;5.77;;;;;;;14.32;100.00;95950.06;7397537;19;20436;-77
2023/04/22 07:48:00;;;;;;;9.57;5.63;;;;;;;14.75;100.00;95951.41;7398830;19;20411;-77
2023/04/22 07:50:27;;;;;;;7.23;5.40;;;;;;;14.42;100.00;95909.56;7399325;19;20400;-77
2023/04/22 07:52:54;;;;;;;6.50;5.90;;;;;;;14.47;100.00;95930.53;7397386;19;20373;-77
2023/04/22 07:55:21;;;;;;;6.00;4.43;;;;;;;14.55;100.00;95944.69;7398431;19;20937;-77
2023/04/22 07:57:48;;;;;;;4.83;4.37;;;;;;;14.18;100.00;95923.28;7397978;19;20373;-77
2023/04/22 08:00:15;;;;;;;5.80;4.80;;;;;;;14.12;100.00;95906.84;7400202;19;20356;-77
2023/04/22 08:02:42;;;;;;;6.50;3.80;;;;;;;14.46;100.00;95930.91;7397722;19;20384;-77
2023/04/22 08:05:10;;;;;;;8.23;5.17;;;;;;;14.49;100.00;95914.22;7399181;19;20416;-77
2023/04/22 08:07:37;;;;;;;5.57;4.93;;;;;;;14.46;99.00;95893.66;7398767;19;20380;-75
2023/04/22 08:10:05;;;;;;;5.07;4.57;;;;;;;14.66;100.00;95908.34;7400559;19;20401;-75
2023/04/22 08:12:32;;;;;;;4.30;3.90;;;;;;;14.79;96.85;95909.63;7397441;19;20440;-75
2023/04/22 08:14:59;;;;;;;5.40;4.53;;;;;;;14.59;95.27;95907.50;7394613;19;20441;-75
2023/04/22 08:17:26;;;;;;;5.90;5.17;;;;;;;14.74;97.72;95907.31;7398780;19;20735;-75
2023/04/22 08:19:53;;;;;;;4.90;4.07;;;;;;;14.88;94.37;95909.34;7398764;19;20357;-75
2023/04/22 08:22:20;;;;;;;6.03;4.83;;;;;;;15.08;94.26;95907.25;7397135;19;20369;-76
2023/04/22 08:24:47;;;;;;;6.67;4.80;;;;;;;15.17;91.46;95905.09;7398137;19;20508;-76
2023/04/22 08:27:13;;;;;;;6.00;5.03;;;;;;;15.56;92.46;95904.69;7397023;19;20341;-76
2023/04/22 08:29:40;;;;;;;4.23;3.87;;;;;;;15.66;91.00;95907.47;7397730;19;20397;-76
2023/04/22 08:32:08;;;;;;;4.20;3.80;;;;;;;15.62;91.98;95893.34;7408892;19;20401;-75
2023/04/22 08:34:35;;;;;;;5.10;3.90;;;;;;;15.81;90.31;95911.00;7418293;19;20440;-75
2023/04/22 08:37:02;;;;;;;6.47;4.10;;;;;;;15.76;90.23;95934.53;7404491;19;20470;-75
2023/04/22 08:39:29;;;;;;;5.43;4.17;;;;;;;15.49;89.69;95916.06;7399140;19;20425;-75
2023/04/22 08:41:57;;;;;;;4.93;3.40;;;;;;;15.87;88.22;95938.06;7399182;19;20412;-75
2023/04/22 08:44:24;;;;;;;5.00;3.77;;;;;;;15.84;88.83;95936.16;7399717;19;20759;-76
2023/04/22 08:46:52;;;;;;;6.83;4.60;;;;;;;15.95;88.13;95926.34;7397226;19;20408;-76
2023/04/22 08:49:22;;;;;;;5.23;4.73;;;;;;;16.04;88.21;95939.34;7394495;19;20401;-76
2023/04/22 08:51:50;;;;;;;4.80;4.50;;;;;;;15.80;87.23;95901.47;7398758;19;20337;-76
2023/04/22 08:54:17;;;;;;;3.67;3.37;;;;;;;15.83;85.80;95923.94;7396629;19;20473;-75
2023/04/22 08:56:44;;;;;;;4.70;4.00;;;;;;;16.03;86.22;95941.25;7397831;19;20386;-76
2023/04/22 08:59:12;;;;;;;5.83;4.83;;;;;;;15.66;85.62;95938.69;7395464;19;20491;-76
2023/04/22 09:01:40;;;;;;;5.77;5.27;;;;;;;15.63;86.80;95939.41;7396920;19;20439;-76
2023/04/22 09:04:13;;;;;;;11.60;7.30;;;;;;;15.36;86.57;95923.56;7395448;19;20420;-76
2023/04/22 09:06:40;;;;;;;8.20;4.70;;;;;;;15.31;86.03;95926.53;7395681;19;20940;-76
2023/04/22 09:09:07;;;;;;;5.20;4.13;;;;;;;15.22;87.02;95904.75;7395076;19;20467;-77
2023/04/22 09:11:35;;;;;;;5.13;4.63;;;;;;;15.47;87.60;95912.19;7399046;19;20354;-76
2023/04/22 09:14:03;;;;;;;5.20;4.03;;;;;;;15.27;87.38;95936.38;7407363;19;20407;-75
2023/04/22 09:16:30;;;;;;;6.40;5.53;;;;;;;15.40;87.92;95936.91;7424757;19;20379;-76
2023/04/22 09:18:58;;;;;;;5.10;4.60;;;;;;;15.69;87.56;95935.28;7406821;19;20369;-76
2023/04/22 09:21:26;;;;;;;6.50;5.83;;;;;;;15.63;87.22;95923.44;7397416;19;20349;-75
2023/04/22 09:23:55;;;;;;;8.30;5.57;;;;;;;15.61;87.50;95913.13;7395362;19;20373;-76
2023/04/22 09:26:24;;;;;;;5.90;5.30;;;;;;;15.87;88.42;95936.16;7397774;19;20397;-75
2023/04/22 09:28:59;;;;;;;4.93;4.27;;;;;;;16.12;87.83;95920.34;7396763;19;20381;-76
2023/04/22 09:31:27;;;;;;;6.63;4.60;;;;;;;16.07;86.97;95909.28;7398945;19;20712;-76
2023/04/22 09:33:56;;;;;;;5.53;5.03;;;;;;;16.17;87.84;95919.25;7397134;19;20349;-76
2023/04/22 09:36:28;;;;;;;6.43;5.10;;;;;;;16.31;88.38;95931.91;7394571;19;20371;-76
2023/04/22 09:38:58;;;;;;;6.40;5.30;;;;;;;16.23;88.17;95915.06;7396242;19;20381;-76
2023/04/22 09:41:28;;;;;;;7.43;5.40;;;;;;;16.13;89.76;95847.19;7396519;19;20372;-76
2023/04/22 09:43:57;;;;;;;6.23;4.27;;;;;;;16.36;86.63;95905.63;7397348;19;20801;-76
2023/04/22 09:46:25;;;;;;;7.47;4.77;;;;;;;16.37;87.57;95891.13;7394685;19;20373;-76
2023/04/22 09:48:55;;;;;;;5.73;4.87;;;;;;;16.57;87.58;95922.91;7395795;19;20389;-75
2023/04/22 09:51:22;;;;;;;6.50;5.10;;;;;;;16.43;86.55;95889.66;7394446;19;20901;-76
2023/04/22 09:54:07;;;;;;;14.30;5.80;;;;;;;16.93;86.68;95918.47;7395737;19;20398;-76
2023/04/22 09:56:51;;;;;;;5.97;4.83;;;;;;;16.59;86.35;95856.56;7395352;19;20440;-75
2023/04/22 09:59:21;;;;;;;5.13;4.57;;;;;;;16.78;86.66;95917.66;7393960;19;20440;-75
2023/04/22 10:01:50;;;;;;;4.50;4.07;;;;;;;16.94;85.81;95895.94;7395667;19;20434;-76
2023/04/22 10:04:20;;;;;;;7.63;4.87;;;;;;;17.01;85.25;95898.66;7394139;19;20437;-76
2023/04/22 10:06:48;;;;;;;4.93;4.30;;;;;;;17.08;85.29;95912.00;7396020;19;20364;-75
2023/04/22 10:09:18;;;;;;;4.93;4.43;;;;;;;16.85;84.12;95874.97;7393775;19;20375;-76
2023/04/22 10:11:47;;;;;;;5.77;4.10;;;;;;;17.19;85.11;95902.13;7396606;19;20416;-76
2023/04/22 10:14:14;;;;;;;4.30;3.80;;;;;;;17.16;82.94;95902.13;7393912;19;20485;-76
2023/04/22 10:16:44;;;;;;;4.10;3.80;;;;;;;16.99;80.23;95893.69;7395859;19;20898;-75
2023/04/22 10:19:15;;;;;;;7.37;3.80;;;;;;;17.08;81.24;95861.25;7397193;19;20392;-76
2023/04/22 10:21:44;;;;;;;3.80;3.40;;;;;;;17.24;81.23;95895.66;7399124;19;20478;-76
2023/04/22 10:24:16;;;;;;;5.10;4.70;;;;;;;17.18;79.41;95886.47;7403122;19;20401;-76
2023/04/22 10:26:48;;;;;;;4.67;4.00;;;;;;;17.44;79.60;95896.81;7401160;19;20724;-75
2023/04/22 10:29:19;;;;;;;9.43;4.10;;;;;;;17.27;79.29;95889.53;7398707;19;20517;-75
2023/04/22 10:31:57;;;;;;;5.03;4.50;;;;;;;17.57;77.03;95899.88;7402820;19;20402;-75
2023/04/22 10:34:24;;;;;;;4.27;3.87;;;;;;;17.93;77.71;95903.34;7402602;19;20437;-75
2023/04/22 10:36:55;;;;;;;8.67;4.17;;;;;;;17.84;75.20;95903.72;7400991;19;20422;-75
2023/04/22 10:39:23;;;;;;;5.03;4.10;;;;;;;17.69;74.36;95897.63;7404396;19;20360;-75
2023/04/22 10:42:05;;;;;;;8.93;4.73;;;;;;;18.15;76.72;95896.78;7402875;19;20934;-74
2023/04/22 10:44:45;;;;;;;4.77;3.97;;;;;;;17.81;75.30;95859.03;7399139;19;20428;-75
2023/04/22 10:47:33;;;;;;;4.80;4.30;;;;;;;18.11;75.28;95892.59;7402390;19;20396;-75
2023/04/22 10:50:14;;;;;;;5.33;4.40;;;;;;;17.98;75.53;95890.31;7400647;19;20385;-75
2023/04/22 10:52:44;;;;;;;3.87;3.53;;;;;;;18.58;74.90;95883.31;7400209;19;20925;-76
2023/04/22 10:55:11;;;;;;;3.37;3.07;;;;;;;18.34;73.51;95879.56;7399592;19;20852;-76
2023/04/22 10:57:41;;;;;;;7.60;3.80;;;;;;;18.50;74.30;95879.88;7399942;19;20389;-75
2023/04/22 11:00:30;;;;;;;3.53;3.23;;;;;;;17.94;73.91;95828.06;7402085;19;20391;-75
2023/04/22 11:03:09;;;;;;;5.00;4.60;;;;;;;18.31;73.39;95857.00;7402708;19;20990;-75
2023/04/22 11:05:37;;;;;;;3.83;3.37;;;;;;;18.63;72.35;95882.13;7398964;19;20418;-75
2023/04/22 11:08:11;;;;;;;3.80;3.40;;;;;;;18.55;72.66;95873.34;7401699;19;20758;-75
2023/04/22 11:10:47;;;;;;;4.83;3.30;;;;;;;18.68;70.14;95849.59;7397187;19;20396;-74
2023/04/22 11:13:24;;;;;;;5.10;3.90;;;;;;;18.77;69.81;95877.50;7402162;19;20367;-75
2023/04/22 11:15:54;;;;;;;4.33;3.93;;;;;;;19.06;69.25;95863.94;7400289;19;20417;-75
2023/04/22 11:18:25;;;;;;;3.67;3.37;;;;;;;19.32;68.82;95873.34;7398513;19;20933;-75
2023/04/22 11:20:53;;;;;;;4.03;3.33;;;;;;;19.25;70.60;95855.41;7400706;19;20390;-75
2023/04/22 11:23:23;;;;;;;4.27;3.97;;;;;;;19.35;69.21;95878.69;7398840;19;20349;-75
2023/04/22 11:25:59;;;;;;;4.63;3.20;;;;;;;19.03;69.03;95865.50;7398042;19;20451;-74
2023/04/22 11:28:26;;;;;;;3.97;2.90;;;;;;;19.03;69.35;95868.19;7400635;19;20409;-74
2023/04/22 11:31:09;;;;;;;4.00;3.13;;;;;;;19.25;67.72;95865.38;7398910;19;20812;-74
2023/04/22 11:33:38;;;;;;;3.07;2.80;;;;;;;19.48;65.13;95866.31;7399900;19;20373;-75
2023/04/22 11:36:10;;;;;;;3.07;2.87;;;;;;;19.69;65.32;95864.66;7398542;19;20402;-75
2023/04/22 11:38:37;;;;;;;5.57;3.40;;;;;;;19.83;65.72;95839.63;7400278;19;20383;-75
2023/04/22 11:41:04;;;;;;;6.80;3.97;;;;;;;19.96;66.03;95827.22;7402718;19;20739;-75